createdAt,value
2023-03-11T00:01:00.570Z,20.79
2023-03-11T00:02:03.472Z,18.74
2023-03-11T00:03:08.717Z,21.79
2023-03-11T00:04:11.089Z,21.86
2023-03-11T00:05:20.009Z,21.53
2023-03-11T00:06:22.457Z,21.08
2023-03-11T00:07:24.766Z,22.38
2023-03-11T00:08:27.166Z,22.15
2023-03-11T00:09:29.049Z,20.03
2023-03-11T00:10:34.351Z,21.17
2023-03-11T00:11:37.225Z,22.12
2023-03-11T00:12:39.103Z,21.79
2023-03-11T00:13:41.033Z,20.68
2023-03-11T00:14:43.071Z,19.64
2023-03-11T00:15:48.095Z,21.43
2023-03-11T00:16:50.204Z,21.39
2023-03-11T00:17:52.398Z,22.01
2023-03-11T00:18:54.453Z,21.59
2023-03-11T00:19:56.344Z,20.01
2023-03-11T00:20:59.293Z,19.80
2023-03-11T00:22:02.341Z,18.26
2023-03-11T00:23:06.571Z,18.94
2023-03-11T00:24:09.119Z,18.64
2023-03-11T00:25:12.854Z,21.04
2023-03-11T00:26:15.726Z,20.93
2023-03-11T00:27:17.658Z,21.05
2023-03-11T00:28:19.548Z,19.81
2023-03-11T00:29:21.852Z,17.86
2023-03-11T00:30:25.395Z,21.24
2023-03-11T00:31:29.177Z,17.88
2023-03-11T00:32:31.315Z,19.56
2023-03-11T00:33:33.348Z,19.21
2023-03-11T00:34:35.234Z,21.29
2023-03-11T00:35:37.143Z,18.25
2023-03-11T00:36:39.248Z,19.35
2023-03-11T00:37:41.939Z,18.38
2023-03-11T00:38:43.852Z,18.78
2023-03-11T00:39:45.975Z,19.51
2023-03-11T00:40:51.720Z,17.35
2023-03-11T00:41:53.683Z,18.91
2023-03-11T00:42:56.700Z,18.43
2023-03-11T00:43:59.092Z,20.63
2023-03-11T00:45:00.979Z,24.05
2023-03-11T00:46:03.253Z,21.41
2023-03-11T00:47:05.514Z,18.30
2023-03-11T00:48:08.024Z,20.33
2023-03-11T00:49:09.914Z,18.93
2023-03-11T00:50:18.799Z,17.31
2023-03-11T00:51:20.826Z,19.51
2023-03-11T00:52:22.806Z,19.76
2023-03-11T00:53:24.817Z,17.07
2023-03-11T00:54:27.509Z,16.85
2023-03-11T00:55:32.769Z,17.50
2023-03-11T00:56:35.238Z,21.19
2023-03-11T00:57:37.215Z,17.62
2023-03-11T00:58:40.172Z,19.69
2023-03-11T00:59:42.345Z,16.12
2023-03-11T01:00:44.630Z,17.22
2023-03-11T01:01:46.679Z,21.01
2023-03-11T01:02:49.394Z,16.79
2023-03-11T01:03:51.484Z,17.31
2023-03-11T01:04:57.112Z,17.27
2023-03-11T01:05:59.175Z,17.97
2023-03-11T01:07:02.525Z,20.97
2023-03-11T01:08:05.230Z,16.14
2023-03-11T01:09:07.282Z,19.93
2023-03-11T01:10:11.127Z,17.95
2023-03-11T01:11:13.209Z,17.47
2023-03-11T01:12:15.098Z,17.33
2023-03-11T01:13:16.987Z,19.17
2023-03-11T01:14:19.404Z,20.89
2023-03-11T01:15:25.276Z,18.10
2023-03-11T01:16:27.518Z,17.23
2023-03-11T01:17:30.522Z,17.62
2023-03-11T01:18:32.414Z,17.65
2023-03-11T01:19:34.394Z,19.23
2023-03-11T01:20:37.840Z,17.75
2023-03-11T01:21:40.282Z,16.02
2023-03-11T01:22:42.796Z,18.41
2023-03-11T01:23:45.115Z,18.29
2023-03-11T01:24:46.999Z,17.96
2023-03-11T01:25:49.107Z,17.02
2023-03-11T01:26:51.746Z,17.10
2023-03-11T01:27:53.654Z,18.79
2023-03-11T01:28:55.786Z,14.67
2023-03-11T01:29:57.688Z,20.24
2023-03-11T01:31:02.324Z,17.47
2023-03-11T01:32:05.842Z,16.85
2023-03-11T01:35:27.051Z,12.92
2023-03-11T01:36:29.199Z,17.27
2023-03-11T01:37:31.191Z,14.93
2023-03-11T01:38:33.070Z,18.19
2023-03-11T01:39:35.175Z,15.05
2023-03-11T01:40:41.065Z,16.07
2023-03-11T01:41:43.241Z,17.41
2023-03-11T01:42:45.397Z,15.36
2023-03-11T01:43:51.157Z,14.20
2023-03-11T01:44:53.177Z,14.19
2023-03-11T01:45:58.872Z,17.03
2023-03-11T01:47:04.711Z,15.66
2023-03-11T01:48:10.344Z,18.11
2023-03-11T01:49:13.984Z,17.21
2023-03-11T01:50:16.953Z,16.73
2023-03-11T01:51:43.492Z,16.76
2023-03-11T01:52:47.079Z,17.23
2023-03-11T01:53:50.712Z,17.31
2023-03-11T01:54:52.613Z,15.63
2023-03-11T01:55:55.222Z,17.18
2023-03-11T01:56:59.812Z,15.75
2023-03-11T01:58:05.319Z,15.81
2023-03-11T01:59:10.529Z,16.90
2023-03-11T02:00:14.675Z,17.06
2023-03-11T02:01:20.585Z,13.50
2023-03-11T02:02:44.326Z,16.69
2023-03-11T02:03:47.509Z,16.59
2023-03-11T02:04:50.948Z,17.32
2023-03-11T02:05:55.357Z,17.17
2023-03-11T02:06:57.988Z,17.76
2023-03-11T02:08:00.871Z,18.17
2023-03-11T02:09:03.158Z,18.98
2023-03-11T02:10:06.832Z,14.07
2023-03-11T02:11:15.091Z,15.03
2023-03-11T02:12:17.571Z,15.89
2023-03-11T02:13:20.175Z,15.55
2023-03-11T02:14:23.971Z,16.84
2023-03-11T02:15:26.359Z,18.58
2023-03-11T02:16:30.315Z,12.99
2023-03-11T02:17:36.707Z,16.26
2023-03-11T02:18:42.841Z,15.01
2023-03-11T02:20:12.861Z,15.41
2023-03-11T02:21:22.351Z,19.08
2023-03-11T02:22:24.940Z,13.55
2023-03-11T02:23:33.713Z,16.67
2023-03-11T02:24:45.711Z,14.42
2023-03-11T02:25:54.317Z,17.95
2023-03-11T02:27:08.984Z,16.06
2023-03-11T02:28:13.648Z,16.97
2023-03-11T02:29:16.229Z,18.03
2023-03-11T02:30:21.186Z,15.92
2023-03-11T02:31:25.173Z,15.44
2023-03-11T02:32:28.579Z,19.94
2023-03-11T02:33:34.199Z,18.87
2023-03-11T02:34:38.721Z,16.23
2023-03-11T02:35:41.268Z,20.14
2023-03-11T02:36:43.447Z,16.23
2023-03-11T02:37:49.097Z,18.51
2023-03-11T02:38:51.183Z,17.31
2023-03-11T02:39:54.771Z,18.46
2023-03-11T02:40:59.672Z,16.21
2023-03-11T02:42:11.850Z,18.54
2023-03-11T02:43:17.733Z,17.33
2023-03-11T02:44:19.778Z,18.74
2023-03-11T02:45:25.284Z,17.02
2023-03-11T02:46:27.951Z,20.27
2023-03-11T02:47:30.657Z,16.35
2023-03-11T02:48:34.368Z,17.12
2023-03-11T02:49:37.132Z,14.28
2023-03-11T02:50:40.611Z,16.48
2023-03-11T02:51:42.756Z,17.27
2023-03-11T02:52:47.021Z,16.93
2023-03-11T02:53:52.977Z,19.32
2023-03-11T02:54:55.036Z,18.13
2023-03-11T02:55:56.898Z,21.23
2023-03-11T02:56:58.972Z,19.70
2023-03-11T02:58:01.002Z,17.21
2023-03-11T02:59:03.407Z,18.49
2023-03-11T03:00:07.574Z,19.44
2023-03-11T03:01:10.957Z,16.27
2023-03-11T03:02:13.248Z,20.06
2023-03-11T03:03:15.288Z,19.13
2023-03-11T03:04:17.525Z,16.49
2023-03-11T03:05:21.714Z,21.00
2023-03-11T03:06:25.132Z,20.05
2023-03-11T03:07:27.438Z,17.06
2023-03-11T03:08:29.481Z,14.81
2023-03-11T03:09:32.277Z,18.64
2023-03-11T03:10:34.389Z,15.77
2023-03-11T03:11:36.534Z,16.61
2023-03-11T03:12:38.400Z,18.24
2023-03-11T03:13:40.296Z,18.67
2023-03-11T03:14:42.203Z,19.24
2023-03-11T03:15:44.299Z,19.68
2023-03-11T03:16:46.544Z,16.53
2023-03-11T03:17:48.862Z,17.61
2023-03-11T03:18:50.780Z,21.37
2023-03-11T03:19:52.645Z,19.31
2023-03-11T03:20:55.904Z,17.71
2023-03-11T03:21:57.827Z,19.75
2023-03-11T03:22:59.697Z,17.95
2023-03-11T03:24:01.938Z,19.03
2023-03-11T03:25:05.224Z,19.30
2023-03-11T03:26:07.555Z,19.70
2023-03-11T03:27:09.586Z,19.21
2023-03-11T03:28:13.552Z,20.83
2023-03-11T03:29:15.541Z,20.10
2023-03-11T03:30:18.244Z,19.41
2023-03-11T03:31:20.626Z,23.48
2023-03-11T03:32:22.687Z,22.29
2023-03-11T03:33:24.775Z,19.27
2023-03-11T03:34:26.686Z,19.48
2023-03-11T03:35:28.725Z,16.95
2023-03-11T03:36:30.709Z,19.05
2023-03-11T03:37:35.998Z,23.27
2023-03-11T03:38:38.341Z,18.91
2023-03-11T03:39:41.233Z,19.99
2023-03-11T03:40:47.340Z,19.80
2023-03-11T03:41:50.465Z,19.01
2023-03-11T03:42:52.806Z,18.42
2023-03-11T03:43:57.610Z,22.49
2023-03-11T03:44:59.869Z,17.26
2023-03-11T03:46:04.535Z,18.59
2023-03-11T03:47:07.184Z,17.18
2023-03-11T03:48:09.454Z,18.75
2023-03-11T03:49:12.266Z,18.52
2023-03-11T03:50:15.269Z,19.15
2023-03-11T03:51:17.735Z,17.25
2023-03-11T03:52:19.725Z,21.13
2023-03-11T03:53:22.409Z,21.97
2023-03-11T03:54:24.794Z,18.50
2023-03-11T03:55:26.707Z,21.14
2023-03-11T03:56:28.829Z,20.25
2023-03-11T03:57:31.502Z,19.26
2023-03-11T03:58:34.533Z,22.37
2023-03-11T03:59:36.615Z,20.73
2023-03-11T04:00:39.029Z,20.35
2023-03-11T04:01:41.059Z,19.19
2023-03-11T04:02:43.039Z,21.18
2023-03-11T04:03:46.501Z,21.51
2023-03-11T04:04:49.140Z,21.51
2023-03-11T04:05:51.606Z,20.11
2023-03-11T04:06:53.801Z,20.83
2023-03-11T04:07:55.851Z,20.70
2023-03-11T04:08:57.828Z,20.27
2023-03-11T04:10:00.840Z,22.62
2023-03-11T04:11:03.398Z,22.39
2023-03-11T04:12:06.601Z,20.44
2023-03-11T04:13:09.016Z,20.76
2023-03-11T04:14:11.278Z,21.45
2023-03-11T04:15:13.173Z,20.89
2023-03-11T04:16:18.962Z,22.86
2023-03-11T04:17:21.038Z,23.84
2023-03-11T04:18:23.294Z,21.90
2023-03-11T04:19:26.347Z,22.64
2023-03-11T04:20:28.350Z,23.77
2023-03-11T04:21:31.379Z,22.47
2023-03-11T04:22:34.167Z,21.98
2023-03-11T04:23:37.054Z,21.23
2023-03-11T04:24:39.078Z,22.82
2023-03-11T04:25:41.201Z,26.21
2023-03-11T04:26:43.221Z,22.97
2023-03-11T04:27:45.231Z,21.80
2023-03-11T04:28:47.385Z,24.07
2023-03-11T04:29:51.006Z,29.23
2023-03-11T04:30:53.194Z,24.25
2023-03-11T04:31:55.364Z,25.83
2023-03-11T04:32:58.244Z,20.32
2023-03-11T04:34:00.254Z,21.29
2023-03-11T04:35:02.646Z,22.00
2023-03-11T04:36:06.972Z,23.43
2023-03-11T04:37:09.627Z,22.03
2023-03-11T04:38:11.621Z,24.72
2023-03-11T04:39:17.154Z,22.95
2023-03-11T04:40:19.420Z,21.83
2023-03-11T04:41:21.440Z,26.42
2023-03-11T04:42:23.619Z,23.45
2023-03-11T04:43:26.485Z,24.95
2023-03-11T04:44:28.472Z,23.20
2023-03-11T04:45:30.524Z,23.18
2023-03-11T04:46:32.730Z,24.55
2023-03-11T04:47:34.771Z,24.75
2023-03-11T04:48:36.905Z,23.85
2023-03-11T04:49:38.778Z,22.83
2023-03-11T04:50:40.767Z,24.17
2023-03-11T04:51:43.100Z,24.13
2023-03-11T04:52:46.652Z,20.91
2023-03-11T04:53:48.585Z,21.29
2023-03-11T04:54:51.274Z,23.64
2023-03-11T04:55:58.971Z,24.51
2023-03-11T04:57:01.003Z,23.67
2023-03-11T04:58:03.212Z,23.61
2023-03-11T04:59:05.222Z,23.29
2023-03-11T05:00:11.144Z,27.85
2023-03-11T05:01:13.248Z,26.43
2023-03-11T05:02:15.233Z,25.30
2023-03-11T05:03:17.326Z,20.68
2023-03-11T05:04:19.579Z,24.71
2023-03-11T05:05:21.647Z,23.00
2023-03-11T05:06:23.865Z,23.36
2023-03-11T05:07:25.736Z,24.07
2023-03-11T05:08:27.962Z,24.09
2023-03-11T05:09:29.861Z,24.77
2023-03-11T05:10:32.310Z,22.58
2023-03-11T05:11:34.423Z,22.25
2023-03-11T05:12:36.497Z,23.71
2023-03-11T05:13:39.119Z,22.36
2023-03-11T05:14:41.011Z,25.43
2023-03-11T05:15:45.460Z,24.65
2023-03-11T05:16:48.658Z,25.82
2023-03-11T05:17:50.635Z,23.89
2023-03-11T05:18:52.615Z,28.33
2023-03-11T05:19:55.438Z,24.63
2023-03-11T05:20:58.087Z,22.14
2023-03-11T05:22:02.315Z,21.63
2023-03-11T05:23:04.452Z,25.14
2023-03-11T05:24:06.698Z,25.01
2023-03-11T05:25:11.950Z,21.89
2023-03-11T05:26:14.420Z,21.46
2023-03-11T05:27:16.591Z,22.99
2023-03-11T05:28:18.457Z,23.43
2023-03-11T05:29:21.538Z,24.77
2023-03-11T05:30:24.257Z,22.50
2023-03-11T05:31:26.301Z,23.00
2023-03-11T05:32:29.276Z,21.57
2023-03-11T05:33:31.516Z,20.45
2023-03-11T05:34:33.691Z,23.19
2023-03-11T05:35:35.749Z,20.88
2023-03-11T05:36:38.564Z,24.02
2023-03-11T05:37:41.374Z,23.17
2023-03-11T05:38:43.458Z,20.98
2023-03-11T05:39:45.360Z,20.48
2023-03-11T05:40:47.550Z,19.74
2023-03-11T05:41:49.441Z,20.92
2023-03-11T05:42:51.425Z,21.39
2023-03-11T05:43:53.341Z,21.72
2023-03-11T05:44:55.834Z,21.30
2023-03-11T05:45:57.860Z,20.89
2023-03-11T05:47:01.593Z,20.72
2023-03-11T05:48:04.081Z,19.69
2023-03-11T05:49:06.067Z,19.91
2023-03-11T05:50:10.921Z,21.00
2023-03-11T05:51:14.442Z,20.79
2023-03-11T05:52:17.370Z,22.07
2023-03-11T05:53:19.291Z,21.07
2023-03-11T05:54:21.158Z,20.15
2023-03-11T05:55:23.138Z,22.50
2023-03-11T05:56:26.761Z,20.45
2023-03-11T05:57:29.009Z,20.96
2023-03-11T05:58:32.121Z,19.69
2023-03-11T05:59:34.423Z,21.79
2023-03-11T06:00:36.400Z,18.05
2023-03-11T06:01:40.282Z,19.40
2023-03-11T06:02:42.764Z,20.51
2023-03-11T06:03:46.927Z,18.68
2023-03-11T06:04:50.287Z,17.93
2023-03-11T06:05:53.549Z,19.80
2023-03-11T06:06:55.692Z,18.32
2023-03-11T06:07:58.259Z,21.58
2023-03-11T06:09:01.994Z,19.20
2023-03-11T06:10:05.988Z,19.14
2023-03-11T06:11:09.948Z,18.86
2023-03-11T06:12:12.155Z,18.51
2023-03-11T06:13:14.310Z,19.89
2023-03-11T06:14:16.755Z,19.40
2023-03-11T06:15:18.862Z,17.98
2023-03-11T06:16:24.739Z,18.83
2023-03-11T06:17:29.337Z,18.39
2023-03-11T06:18:30.928Z,18.86
2023-03-11T06:19:33.413Z,18.65
2023-03-11T06:20:37.023Z,19.73
2023-03-11T06:21:39.217Z,22.36
2023-03-11T06:22:41.440Z,17.78
2023-03-11T06:23:45.868Z,19.51
2023-03-11T06:24:48.079Z,17.85
2023-03-11T06:25:58.455Z,19.49
2023-03-11T06:27:00.498Z,20.22
2023-03-11T06:28:02.648Z,17.21
2023-03-11T06:29:06.771Z,21.98
2023-03-11T06:30:11.718Z,19.09
2023-03-11T06:32:27.369Z,20.09
2023-03-11T06:33:29.380Z,22.05
2023-03-11T06:34:31.461Z,17.14
2023-03-11T06:35:33.493Z,17.15
2023-03-11T06:36:35.627Z,20.86
2023-03-11T06:37:39.188Z,21.29
2023-03-11T06:38:41.341Z,20.14
2023-03-11T06:39:43.481Z,21.74
2023-03-11T06:40:45.641Z,20.45
2023-03-11T06:41:47.522Z,21.29
2023-03-11T06:42:49.726Z,20.35
2023-03-11T06:43:51.881Z,21.68
2023-03-11T06:44:53.919Z,20.53
2023-03-11T06:45:56.315Z,18.16
2023-03-11T06:46:58.496Z,19.39
2023-03-11T06:48:00.480Z,18.81
2023-03-11T06:49:02.724Z,19.01
2023-03-11T06:50:06.026Z,20.22
2023-03-11T06:51:10.782Z,22.89
2023-03-11T06:52:13.057Z,21.57
2023-03-11T06:53:16.907Z,22.02
2023-03-11T06:54:19.501Z,21.28
2023-03-11T06:55:21.645Z,20.90
2023-03-11T06:56:24.347Z,18.65
2023-03-11T06:57:26.673Z,22.09
2023-03-11T06:58:30.266Z,20.93
2023-03-11T06:59:32.742Z,20.09
2023-03-11T07:00:36.075Z,22.43
2023-03-11T07:01:38.230Z,22.82
2023-03-11T07:02:40.606Z,21.19
2023-03-11T07:03:45.076Z,21.27
2023-03-11T07:04:51.051Z,22.26
2023-03-11T07:05:53.109Z,20.07
2023-03-11T07:06:57.529Z,20.34
2023-03-11T07:07:59.464Z,22.14
2023-03-11T07:09:01.671Z,22.45
2023-03-11T07:10:05.716Z,20.85
2023-03-11T07:11:20.262Z,22.14
2023-03-11T07:12:23.044Z,20.18
2023-03-11T07:13:25.735Z,22.59
2023-03-11T07:14:28.126Z,25.41
2023-03-11T07:15:30.142Z,20.99
2023-03-11T07:16:32.215Z,21.38
2023-03-11T07:17:34.234Z,24.19
2023-03-11T07:18:37.253Z,22.23
2023-03-11T07:19:39.276Z,23.49
2023-03-11T07:20:41.564Z,23.47
2023-03-11T07:21:43.609Z,22.05
2023-03-11T07:22:45.717Z,21.67
2023-03-11T07:23:50.830Z,21.85
2023-03-11T07:24:52.913Z,22.76
2023-03-11T07:25:55.029Z,20.19
2023-03-11T07:26:57.273Z,23.14
2023-03-11T07:27:59.144Z,23.62
2023-03-11T07:29:01.658Z,21.43
2023-03-11T07:30:06.166Z,20.83
2023-03-11T07:31:10.702Z,23.74
2023-03-11T07:32:12.820Z,22.49
2023-03-11T07:33:15.776Z,21.61
2023-03-11T07:34:18.838Z,24.09
2023-03-11T07:35:21.108Z,23.98
2023-03-11T07:36:24.441Z,21.30
2023-03-11T07:37:26.437Z,21.17
2023-03-11T07:38:28.326Z,20.47
2023-03-11T07:39:31.486Z,22.28
2023-03-11T07:40:34.535Z,20.68
2023-03-11T07:41:36.441Z,25.54
2023-03-11T07:42:38.566Z,21.94
2023-03-11T07:43:43.056Z,18.63
2023-03-11T07:44:47.480Z,21.31
2023-03-11T07:45:50.160Z,22.76
2023-03-11T07:46:52.351Z,22.03
2023-03-11T07:47:54.284Z,22.45
2023-03-11T07:48:56.712Z,27.77
2023-03-11T07:49:59.244Z,24.43
2023-03-11T07:51:03.746Z,24.11
2023-03-11T07:52:06.753Z,22.30
2023-03-11T07:53:09.649Z,24.29
2023-03-11T07:54:13.096Z,22.74
2023-03-11T07:55:15.832Z,22.25
2023-03-11T07:56:19.514Z,20.44
2023-03-11T07:57:21.652Z,22.79
2023-03-11T07:58:28.059Z,22.74
2023-03-11T07:59:30.140Z,23.45
2023-03-11T08:00:32.527Z,23.46
2023-03-11T08:01:34.542Z,21.90
2023-03-11T08:02:36.566Z,21.81
2023-03-11T08:03:38.783Z,21.73
2023-03-11T08:04:40.922Z,24.75
2023-03-11T08:05:43.154Z,26.47
2023-03-11T08:06:47.535Z,22.93
2023-03-11T08:07:49.544Z,24.40
2023-03-11T08:08:52.258Z,25.85
2023-03-11T08:09:54.262Z,22.39
2023-03-11T08:10:56.356Z,23.74
2023-03-11T08:11:58.239Z,25.95
2023-03-11T08:13:00.155Z,23.10
2023-03-11T08:14:02.349Z,24.03
2023-03-11T08:15:07.807Z,23.66
2023-03-11T08:16:13.851Z,22.51
2023-03-11T08:17:16.320Z,22.71
2023-03-11T08:18:18.326Z,22.70
2023-03-11T08:19:20.295Z,23.94
2023-03-11T08:20:24.038Z,24.12
2023-03-11T08:21:29.090Z,22.55
2023-03-11T08:22:31.141Z,23.97
2023-03-11T08:23:33.225Z,22.59
2023-03-11T08:24:35.213Z,25.20
2023-03-11T08:25:41.768Z,24.75
2023-03-11T08:26:46.084Z,27.04
2023-03-11T08:27:48.296Z,25.12
2023-03-11T08:28:50.382Z,25.12
2023-03-11T08:29:52.676Z,28.30
2023-03-11T08:30:54.982Z,25.49
2023-03-11T08:31:57.419Z,28.00
2023-03-11T08:32:59.434Z,25.31
2023-03-11T08:34:07.844Z,27.31
2023-03-11T08:35:11.077Z,31.46
2023-03-11T08:36:13.517Z,30.10
2023-03-11T08:37:15.512Z,31.72
2023-03-11T08:38:17.705Z,30.00
2023-03-11T08:39:19.720Z,28.95
2023-03-11T08:40:22.841Z,30.25
2023-03-11T08:41:25.645Z,29.79
2023-03-11T08:42:27.580Z,31.10
2023-03-11T08:43:29.459Z,29.45
2023-03-11T08:44:31.373Z,29.56
2023-03-11T08:45:33.839Z,33.15
2023-03-11T08:46:37.730Z,31.31
2023-03-11T08:47:40.664Z,30.11
2023-03-11T08:48:42.710Z,35.45
2023-03-11T08:49:44.667Z,29.58
2023-03-11T08:50:53.851Z,34.51
2023-03-11T08:51:52.820Z,30.68
2023-03-11T08:52:54.714Z,32.96
2023-03-11T08:53:56.724Z,32.38
2023-03-11T08:54:58.796Z,34.47
2023-03-11T08:56:01.858Z,33.77
2023-03-11T08:57:03.772Z,32.61
2023-03-11T08:58:07.241Z,31.61
2023-03-11T08:59:09.209Z,31.07
2023-03-11T09:00:13.318Z,32.77
2023-03-11T09:01:16.136Z,34.46
2023-03-11T09:02:18.053Z,35.76
2023-03-11T09:03:20.176Z,39.39
2023-03-11T09:04:22.259Z,38.12
2023-03-11T09:05:24.340Z,39.61
2023-03-11T09:06:26.479Z,36.95
2023-03-11T09:07:29.794Z,36.97
2023-03-11T09:08:31.704Z,42.65
2023-03-11T09:09:33.678Z,38.39
2023-03-11T09:10:35.952Z,41.85
2023-03-11T09:11:38.832Z,43.14
2023-03-11T09:12:41.337Z,41.89
2023-03-11T09:13:44.009Z,45.50
2023-03-11T09:14:47.011Z,40.73
2023-03-11T09:15:50.700Z,46.31
2023-03-11T09:16:52.892Z,40.07
2023-03-11T09:17:54.977Z,45.86
2023-03-11T09:18:57.330Z,45.99
2023-03-11T09:19:59.295Z,42.65
2023-03-11T09:21:01.405Z,45.97
2023-03-11T09:22:04.584Z,44.07
2023-03-11T09:23:07.402Z,44.01
2023-03-11T09:24:09.304Z,48.06
2023-03-11T09:25:13.627Z,45.54
2023-03-11T09:26:15.982Z,44.94
2023-03-11T09:27:18.060Z,49.07
2023-03-11T09:28:20.509Z,49.87
2023-03-11T09:29:23.157Z,52.89
2023-03-11T09:30:25.206Z,46.35
2023-03-11T09:31:27.553Z,50.83
2023-03-11T09:32:29.854Z,50.73
2023-03-11T09:33:37.355Z,47.83
2023-03-11T09:34:40.725Z,48.72
2023-03-11T09:35:42.822Z,51.31
2023-03-11T09:36:45.725Z,51.06
2023-03-11T09:37:47.735Z,48.72
2023-03-11T09:38:49.822Z,55.85
2023-03-11T09:39:53.119Z,48.35
2023-03-11T09:41:07.685Z,48.75
2023-03-11T09:42:19.301Z,48.67
2023-03-11T09:43:31.048Z,53.22
2023-03-11T09:44:46.358Z,50.94
2023-03-11T09:48:33.180Z,48.70
2023-03-11T09:49:58.542Z,50.10
2023-03-11T09:51:06.984Z,47.73
2023-03-11T09:52:12.656Z,54.96
2023-03-11T09:53:36.217Z,53.50
2023-03-11T09:57:02.506Z,54.15
2023-03-11T09:58:18.363Z,47.64
2023-03-11T09:59:31.961Z,54.03
2023-03-11T10:00:35.101Z,51.04
2023-03-11T10:01:43.689Z,53.63
2023-03-11T10:02:46.456Z,56.03
2023-03-11T10:03:51.419Z,53.18
2023-03-11T10:05:09.097Z,54.22
2023-03-11T10:06:18.149Z,55.09
2023-03-11T10:07:23.840Z,50.32
2023-03-11T10:08:29.633Z,54.43
2023-03-11T10:09:39.588Z,52.83
2023-03-11T10:10:45.589Z,50.78
2023-03-11T10:12:00.527Z,55.06
2023-03-11T10:13:12.415Z,55.27
2023-03-11T10:14:21.298Z,49.18
2023-03-11T10:15:30.869Z,53.24
2023-03-11T10:16:46.943Z,56.12
2023-03-11T10:18:05.452Z,51.81
2023-03-11T10:21:55.203Z,54.31
2023-03-11T10:23:34.562Z,59.46
2023-03-11T10:24:58.365Z,54.56
2023-03-11T10:26:07.006Z,54.46
2023-03-11T10:27:12.788Z,54.84
2023-03-11T10:28:20.586Z,50.37
2023-03-11T10:29:32.435Z,49.86
2023-03-11T10:30:53.359Z,49.61
2023-03-11T10:32:16.980Z,54.57
2023-03-11T10:33:42.790Z,47.29
2023-03-11T10:35:05.088Z,48.98
2023-03-11T10:36:11.240Z,49.57
2023-03-11T10:37:49.311Z,47.67
2023-03-11T10:38:49.871Z,46.67
2023-03-11T10:39:52.050Z,46.43
2023-03-11T10:40:56.954Z,43.35
2023-03-11T10:42:02.265Z,45.59
2023-03-11T10:44:35.808Z,46.37
2023-03-11T10:45:40.066Z,42.86
2023-03-11T10:46:42.147Z,44.36
2023-03-11T10:47:44.023Z,42.97
2023-03-11T10:48:46.030Z,43.37
2023-03-11T10:49:49.247Z,43.81
2023-03-11T10:51:04.287Z,44.98
2023-03-11T10:52:06.506Z,41.21
2023-03-11T10:53:12.263Z,40.84
2023-03-11T10:54:34.487Z,38.09
2023-03-11T10:55:40.199Z,43.42
2023-03-11T10:56:42.514Z,40.01
2023-03-11T10:57:44.634Z,41.20
2023-03-11T10:58:51.952Z,41.85
2023-03-11T10:59:56.509Z,40.61
2023-03-11T11:01:03.559Z,41.30
2023-03-11T11:02:34.006Z,39.61
2023-03-11T11:03:37.946Z,40.07
2023-03-11T11:04:40.447Z,41.36
2023-03-11T11:05:42.522Z,39.71
2023-03-11T11:06:46.071Z,42.87
2023-03-11T11:08:03.631Z,43.01
2023-03-11T11:09:26.642Z,42.23
2023-03-11T11:10:29.491Z,44.65
2023-03-11T11:11:32.203Z,42.81
2023-03-11T11:12:34.085Z,44.37
2023-03-11T11:13:35.962Z,38.88
2023-03-11T11:14:43.913Z,39.12
2023-03-11T11:15:59.086Z,42.57
2023-03-11T11:17:01.868Z,41.62
2023-03-11T11:18:16.404Z,41.53
2023-03-11T11:19:19.950Z,41.42
2023-03-11T11:20:24.617Z,43.99
2023-03-11T11:21:39.409Z,41.77
2023-03-11T11:22:57.174Z,42.38
2023-03-11T11:24:18.759Z,39.97
2023-03-11T11:26:39.590Z,38.91
2023-03-11T11:27:45.335Z,38.48
2023-03-11T11:31:23.435Z,37.96
2023-03-11T11:32:27.806Z,34.98
2023-03-11T11:33:51.452Z,41.62
2023-03-11T11:35:02.467Z,35.64
2023-03-11T11:36:08.034Z,42.28
2023-03-11T11:37:12.664Z,36.72
2023-03-11T11:38:15.032Z,37.94
2023-03-11T11:39:19.720Z,40.47
2023-03-11T11:40:33.214Z,41.39
2023-03-11T11:41:36.079Z,42.04
2023-03-11T11:42:41.726Z,41.62
2023-03-11T11:43:55.929Z,44.40
2023-03-11T11:45:01.731Z,45.53
2023-03-11T11:46:25.733Z,50.76
2023-03-11T11:47:31.556Z,49.24
2023-03-11T11:48:37.282Z,51.58
2023-03-11T11:49:43.911Z,49.14
2023-03-11T11:50:59.146Z,53.53
2023-03-11T11:52:29.609Z,58.20
2023-03-11T11:53:38.219Z,58.57
2023-03-11T11:54:48.825Z,57.52
2023-03-11T11:55:52.763Z,61.71
2023-03-11T11:56:56.595Z,56.67
2023-03-11T11:58:01.350Z,54.83
2023-03-11T11:59:07.145Z,59.07
2023-03-11T12:00:19.606Z,62.38
2023-03-11T12:01:41.369Z,61.34
2023-03-11T12:03:03.777Z,63.85
2023-03-11T12:04:21.690Z,64.48
2023-03-11T12:05:29.495Z,56.98
2023-03-11T12:06:43.068Z,57.58
2023-03-11T12:08:04.213Z,58.88
2023-03-11T12:10:37.916Z,57.89
2023-03-11T12:13:45.540Z,61.52
2023-03-11T12:15:03.129Z,59.74
2023-03-11T12:16:18.825Z,59.22
2023-03-11T12:17:24.047Z,53.11
2023-03-11T12:18:41.425Z,52.22
2023-03-11T12:22:48.264Z,50.48
2023-03-11T12:24:18.154Z,45.71
2023-03-11T12:25:40.911Z,44.81
2023-03-11T12:26:45.839Z,47.02
2023-03-11T12:27:57.489Z,48.08
2023-03-11T12:29:16.203Z,51.53
2023-03-11T12:30:25.190Z,48.14
2023-03-11T12:31:30.915Z,49.72
2023-03-11T12:32:42.381Z,45.05
2023-03-11T12:34:52.401Z,43.65
2023-03-11T12:35:57.724Z,45.96
2023-03-11T12:37:02.367Z,41.09
2023-03-11T12:38:19.961Z,43.19
2023-03-11T12:39:26.128Z,42.33
2023-03-11T12:40:51.826Z,41.54
2023-03-11T12:42:14.208Z,44.87
2023-03-11T12:43:34.336Z,38.30
2023-03-11T12:44:37.700Z,41.46
2023-03-11T12:45:48.987Z,39.96
2023-03-11T12:48:28.365Z,42.33
2023-03-11T12:50:42.700Z,47.13
2023-03-11T12:52:08.825Z,44.24
2023-03-11T12:53:14.585Z,41.49
2023-03-11T12:54:31.769Z,40.49
2023-03-11T12:55:36.322Z,44.34
2023-03-11T12:56:47.301Z,38.04
2023-03-11T12:57:53.078Z,39.04
2023-03-11T12:59:05.487Z,40.33
2023-03-11T13:00:34.269Z,38.37
2023-03-11T13:01:58.360Z,44.33
2023-03-11T13:05:49.282Z,39.14
2023-03-11T13:07:24.349Z,43.29
2023-03-11T13:08:38.438Z,42.99
2023-03-11T13:09:40.702Z,49.29
2023-03-11T13:10:45.627Z,43.23
2023-03-11T13:11:48.475Z,45.66
2023-03-11T13:12:52.277Z,41.91
2023-03-11T13:14:16.350Z,44.44
2023-03-11T13:15:22.040Z,43.83
2023-03-11T13:16:28.176Z,42.03
2023-03-11T13:17:30.416Z,42.01
2023-03-11T13:18:32.813Z,42.38
2023-03-11T13:19:38.556Z,40.57
2023-03-11T13:20:47.281Z,44.67
2023-03-11T13:21:49.224Z,41.33
2023-03-11T13:23:01.356Z,40.73
2023-03-11T13:24:22.290Z,48.37
2023-03-11T13:25:30.750Z,42.55
2023-03-11T13:28:59.770Z,38.96
2023-03-11T13:30:11.534Z,38.96
2023-03-11T13:31:38.524Z,41.26
2023-03-11T13:34:40.515Z,39.44
2023-03-11T13:35:46.328Z,40.34
2023-03-11T13:36:52.591Z,43.08
2023-03-11T13:38:15.371Z,40.31
2023-03-11T13:39:33.272Z,43.01
2023-03-11T13:40:41.858Z,38.60
2023-03-11T13:41:45.279Z,36.20
2023-03-11T13:42:53.201Z,39.17
2023-03-11T13:43:59.352Z,35.39
2023-03-11T13:45:01.714Z,37.57
2023-03-11T13:46:08.400Z,37.33
2023-03-11T13:47:16.224Z,36.44
2023-03-11T13:48:25.093Z,36.72
2023-03-11T13:49:33.625Z,38.92
2023-03-11T13:50:42.162Z,38.31
2023-03-11T13:51:46.603Z,37.71
2023-03-11T13:52:52.284Z,36.17
2023-03-11T13:53:58.036Z,35.60
2023-03-11T13:55:07.426Z,35.81
2023-03-11T13:56:18.698Z,39.75
2023-03-11T13:57:30.366Z,37.99
2023-03-11T13:58:32.280Z,39.14
2023-03-11T13:59:35.028Z,31.94
2023-03-11T14:00:37.380Z,34.95
2023-03-11T14:01:40.591Z,31.93
2023-03-11T14:03:00.713Z,34.84
2023-03-11T14:04:06.966Z,33.48
2023-03-11T14:05:12.798Z,36.72
2023-03-11T14:06:20.072Z,36.94
2023-03-11T14:07:31.637Z,33.98
2023-03-11T14:08:36.576Z,31.87
2023-03-11T14:09:38.786Z,38.59
2023-03-11T14:10:56.794Z,45.46
2023-03-11T14:12:06.893Z,51.70
2023-03-11T14:13:15.654Z,47.33
2023-03-11T14:14:33.630Z,44.17
2023-03-11T14:15:42.377Z,38.45
2023-03-11T14:16:44.864Z,33.39
2023-03-11T14:17:48.838Z,34.14
2023-03-11T14:19:18.581Z,29.68
2023-03-11T14:20:23.259Z,31.37
2023-03-11T14:21:25.406Z,27.28
2023-03-11T14:22:27.526Z,29.43
2023-03-11T14:23:35.534Z,28.51
2023-03-11T14:24:38.062Z,27.57
2023-03-11T14:25:41.924Z,29.62
2023-03-11T14:26:45.508Z,29.14
2023-03-11T14:27:57.040Z,26.38
2023-03-11T14:29:03.556Z,23.41
2023-03-11T14:30:07.772Z,24.97
2023-03-11T14:31:22.541Z,24.75
2023-03-11T14:33:38.954Z,26.14
2023-03-11T14:34:40.982Z,27.23